Weather at Horizonte Aplicaciones Areas Airport

Public forecast

Using degrees Celsius for public forecast. Weather courtesy of forecast.io.

Closest aviation weather report (METAR) to Horizonte Aplicaciones Areas Airport

Closest report is Rosario Islas Malvinas International Airport, 45.0 nm (83.3 km) ESE.

2024/07/20 16:00 (retrieved 1 hour ago)

SAAR 201600Z 11010KT 9999 BKN010 OVC028 09/07 Q1022

Closest aviation forecast (TAF) to Horizonte Aplicaciones Areas Airport

Closest forecast is Rosario Islas Malvinas International Airport, 45.0 nm (83.3 km) ESE.

2024/07/20 14:21 Ammendment (retrieved 3 hours ago)

TAF AMD TAF AMD SAAR 201420Z 2014/2112 13015KT 5000 RA SCT010 SCT045 TX12/2018Z TN08/2014Z TEMPO 2014/2022 3000 DZRA BKN010 OVC025 BECMG 2016/2018 13005KT BECMG 2102/2104 18005KT 5000 BR